VKG563 LGSA-ENGM
Flight info
| Callsign | VKG563 |
|---|---|
| Flight time | N/A |
| Altitude | 38000 |
| Route | SOKRI UY151 DDM DCT IXONI DCT VARDI DCT DIMIS DCT ODRAS DCT TORTO DCT TONDO DCT TURIS DCT MAKAL DCT DESEN DCT GOSOT DCT SABAK DCT LUNIP |
| Aircraft | A339/H-SADE1E2E3GHIJ1J3J5M1P2RWXY/LB2D1 |
Departure
| Time | 2026-04-30 12:06 |
|---|---|
| Airport | Chania International Airport (LGSA) |
Arrival
| Time | N/A |
|---|---|
| Airport | Oslo-Gardermoen International Airport (ENGM) |
| Time | Latitude | Longitude | Altitude | Speed | Heading |
|---|---|---|---|---|---|
| 2026-04-30 11:38 | 35.53891 | 24.13952 | 450 ft | 0 kts | 20° |
| 2026-04-30 11:53 | 35.53890 | 24.13951 | 449 ft | 0 kts | 20° |
| 2026-04-30 11:53 | 35.53889 | 24.13951 | 449 ft | 0 kts | 20° |
| 2026-04-30 11:53 | 35.53888 | 24.13950 | 450 ft | 0 kts | 20° |
| 2026-04-30 11:54 | 35.53883 | 24.13948 | 450 ft | 4 kts | 20° |
| 2026-04-30 11:54 | 35.53867 | 24.13941 | 450 ft | 2 kts | 20° |
| 2026-04-30 11:54 | 35.53852 | 24.13934 | 450 ft | 2 kts | 27° |
| 2026-04-30 11:54 | 35.53841 | 24.13923 | 451 ft | 2 kts | 53° |
| 2026-04-30 11:55 | 35.53833 | 24.13907 | 451 ft | 2 kts | 73° |
| 2026-04-30 11:55 | 35.53831 | 24.13890 | 451 ft | 2 kts | 94° |
| 2026-04-30 11:55 | 35.53834 | 24.13873 | 451 ft | 1 kts | 113° |
| 2026-04-30 11:55 | 35.53835 | 24.13870 | 451 ft | 0 kts | 114° |
| 2026-04-30 11:58 | 35.53835 | 24.13871 | 451 ft | 0 kts | 114° |
| 2026-04-30 11:58 | 35.53832 | 24.13879 | 451 ft | 2 kts | 111° |
| 2026-04-30 11:58 | 35.53820 | 24.13918 | 451 ft | 7 kts | 110° |
| 2026-04-30 11:59 | 35.53796 | 24.13997 | 452 ft | 12 kts | 111° |
| 2026-04-30 11:59 | 35.53760 | 24.14112 | 453 ft | 14 kts | 111° |
| 2026-04-30 11:59 | 35.53722 | 24.14230 | 453 ft | 15 kts | 111° |
| 2026-04-30 11:59 | 35.53685 | 24.14345 | 453 ft | 12 kts | 118° |
| 2026-04-30 12:00 | 35.53632 | 24.14359 | 455 ft | 7 kts | 198° |
| 2026-04-30 12:00 | 35.53590 | 24.14347 | 457 ft | 5 kts | 173° |
| 2026-04-30 12:00 | 35.53557 | 24.14378 | 458 ft | 7 kts | 128° |
| 2026-04-30 12:00 | 35.53529 | 24.14444 | 458 ft | 10 kts | 112° |
| 2026-04-30 12:01 | 35.53500 | 24.14531 | 458 ft | 12 kts | 112° |
| 2026-04-30 12:01 | 35.53465 | 24.14639 | 459 ft | 14 kts | 111° |
| 2026-04-30 12:01 | 35.53425 | 24.14763 | 459 ft | 17 kts | 111° |
| 2026-04-30 12:01 | 35.53377 | 24.14909 | 459 ft | 19 kts | 112° |
| 2026-04-30 12:02 | 35.53324 | 24.15072 | 460 ft | 21 kts | 112° |
| 2026-04-30 12:02 | 35.53267 | 24.15246 | 461 ft | 22 kts | 111° |
| 2026-04-30 12:02 | 35.53207 | 24.15431 | 463 ft | 23 kts | 112° |
| 2026-04-30 12:02 | 35.53144 | 24.15619 | 467 ft | 23 kts | 111° |
| 2026-04-30 12:03 | 35.53086 | 24.15803 | 472 ft | 23 kts | 111° |
| 2026-04-30 12:03 | 35.52968 | 24.16165 | 480 ft | 22 kts | 111° |
| 2026-04-30 12:03 | 35.52911 | 24.16344 | 483 ft | 22 kts | 111° |
| 2026-04-30 12:04 | 35.52852 | 24.16526 | 486 ft | 23 kts | 111° |
| 2026-04-30 12:04 | 35.52792 | 24.16711 | 488 ft | 22 kts | 111° |
| 2026-04-30 12:04 | 35.52742 | 24.16857 | 490 ft | 12 kts | 124° |
| 2026-04-30 12:04 | 35.52676 | 24.16867 | 492 ft | 9 kts | 198° |
| 2026-04-30 12:05 | 35.52617 | 24.16839 | 494 ft | 8 kts | 201° |
| 2026-04-30 12:05 | 35.52590 | 24.16788 | 495 ft | 8 kts | 270° |
| 2026-04-30 12:05 | 35.52621 | 24.16671 | 494 ft | 32 kts | 291° |
| 2026-04-30 12:05 | 35.52785 | 24.16167 | 489 ft | 93 kts | 291° |
| 2026-04-30 12:06 | 35.53092 | 24.15221 | 469 ft | 145 kts | 291° |
| 2026-04-30 12:06 | 35.53522 | 24.13901 | 560 ft | 178 kts | 292° |
| 2026-04-30 12:06 | 35.53991 | 24.12518 | 1112 ft | 176 kts | 292° |
| 2026-04-30 12:06 | 35.54454 | 24.11166 | 1701 ft | 175 kts | 292° |
| 2026-04-30 12:07 | 35.54922 | 24.09806 | 2284 ft | 175 kts | 292° |
| 2026-04-30 12:07 | 35.55410 | 24.08402 | 2750 ft | 182 kts | 292° |
| 2026-04-30 12:07 | 35.55925 | 24.06916 | 3087 ft | 197 kts | 292° |
| 2026-04-30 12:07 | 35.56476 | 24.05305 | 3399 ft | 215 kts | 295° |
| 2026-04-30 12:08 | 35.57430 | 24.03821 | 3725 ft | 235 kts | 326° |
| 2026-04-30 12:08 | 35.58987 | 24.03145 | 4269 ft | 246 kts | 356° |
| 2026-04-30 12:08 | 35.60688 | 24.03246 | 5006 ft | 247 kts | 5° |
| 2026-04-30 12:08 | 35.62387 | 24.03532 | 5709 ft | 249 kts | 6° |
| 2026-04-30 12:09 | 35.64112 | 24.03854 | 6375 ft | 250 kts | 3° |
| 2026-04-30 12:09 | 35.65789 | 24.03550 | 7002 ft | 248 kts | 332° |
| 2026-04-30 12:09 | 35.67270 | 24.02490 | 7645 ft | 252 kts | 325° |
| 2026-04-30 12:09 | 35.68766 | 24.01278 | 8014 ft | 267 kts | 325° |
| 2026-04-30 12:10 | 35.70362 | 24.00007 | 8596 ft | 274 kts | 326° |
| 2026-04-30 12:10 | 35.71979 | 23.98757 | 9314 ft | 275 kts | 327° |
| 2026-04-30 12:10 | 35.73604 | 23.97528 | 10041 ft | 276 kts | 327° |
| 2026-04-30 12:10 | 35.75258 | 23.96294 | 10580 ft | 284 kts | 327° |
| 2026-04-30 12:11 | 35.76985 | 23.95015 | 10896 ft | 300 kts | 327° |
| 2026-04-30 12:11 | 35.78840 | 23.93650 | 11181 ft | 317 kts | 327° |
| 2026-04-30 12:11 | 35.80772 | 23.92234 | 11468 ft | 333 kts | 328° |
| 2026-04-30 12:11 | 35.82817 | 23.90739 | 11747 ft | 348 kts | 328° |
| 2026-04-30 12:12 | 35.84937 | 23.89188 | 12095 ft | 361 kts | 328° |
| 2026-04-30 12:12 | 35.87094 | 23.87614 | 12698 ft | 365 kts | 328° |
| 2026-04-30 12:12 | 35.89271 | 23.86025 | 13386 ft | 367 kts | 328° |
| 2026-04-30 12:12 | 35.91471 | 23.84417 | 14056 ft | 369 kts | 328° |
| 2026-04-30 12:13 | 35.93687 | 23.82795 | 14666 ft | 373 kts | 328° |
| 2026-04-30 12:13 | 35.95924 | 23.81157 | 15233 ft | 378 kts | 328° |
| 2026-04-30 12:13 | 35.98195 | 23.79494 | 15824 ft | 382 kts | 328° |
| 2026-04-30 12:13 | 36.00480 | 23.77819 | 16429 ft | 385 kts | 328° |
| 2026-04-30 12:14 | 36.02797 | 23.76121 | 17019 ft | 389 kts | 328° |
| 2026-04-30 12:14 | 36.05128 | 23.74410 | 17600 ft | 393 kts | 328° |
| 2026-04-30 12:14 | 36.07485 | 23.72680 | 18180 ft | 396 kts | 328° |
| 2026-04-30 12:14 | 36.09836 | 23.70953 | 18748 ft | 399 kts | 328° |
| 2026-04-30 12:15 | 36.12253 | 23.69176 | 19331 ft | 402 kts | 328° |
| 2026-04-30 12:15 | 36.14661 | 23.67404 | 19882 ft | 405 kts | 328° |
| 2026-04-30 12:15 | 36.17070 | 23.65630 | 20425 ft | 408 kts | 327° |
| 2026-04-30 12:15 | 36.19529 | 23.63819 | 20958 ft | 411 kts | 327° |
| 2026-04-30 12:16 | 36.21971 | 23.62017 | 21466 ft | 414 kts | 327° |
| 2026-04-30 12:16 | 36.24436 | 23.60197 | 21968 ft | 417 kts | 327° |
| 2026-04-30 12:16 | 36.26951 | 23.58339 | 22457 ft | 419 kts | 327° |
| 2026-04-30 12:16 | 36.29469 | 23.56478 | 22945 ft | 422 kts | 327° |
| 2026-04-30 12:17 | 36.34524 | 23.52735 | 23822 ft | 428 kts | 327° |
| 2026-04-30 12:17 | 36.37074 | 23.50846 | 24256 ft | 430 kts | 327° |
| 2026-04-30 12:17 | 36.39660 | 23.48930 | 24681 ft | 433 kts | 327° |
| 2026-04-30 12:18 | 36.42227 | 23.47024 | 25078 ft | 436 kts | 327° |
| 2026-04-30 12:18 | 36.44830 | 23.45091 | 25470 ft | 439 kts | 327° |
| 2026-04-30 12:18 | 36.47475 | 23.43125 | 25862 ft | 441 kts | 327° |
| 2026-04-30 12:18 | 36.50108 | 23.41166 | 26234 ft | 444 kts | 327° |
| 2026-04-30 12:19 | 36.52749 | 23.39200 | 26587 ft | 446 kts | 326° |
| 2026-04-30 12:19 | 36.55403 | 23.37223 | 26950 ft | 449 kts | 326° |
| 2026-04-30 12:19 | 36.58081 | 23.35226 | 27302 ft | 451 kts | 326° |
| 2026-04-30 12:19 | 36.60772 | 23.33216 | 27659 ft | 453 kts | 326° |
| 2026-04-30 12:20 | 36.63497 | 23.31180 | 28015 ft | 455 kts | 326° |
| 2026-04-30 12:20 | 36.66195 | 23.29163 | 28341 ft | 457 kts | 326° |
| 2026-04-30 12:20 | 36.68920 | 23.27124 | 28672 ft | 459 kts | 326° |
| 2026-04-30 12:20 | 36.71676 | 23.25060 | 29010 ft | 461 kts | 325° |
| 2026-04-30 12:21 | 36.74394 | 23.23024 | 29453 ft | 460 kts | 325° |
| 2026-04-30 12:21 | 36.77109 | 23.20989 | 29941 ft | 457 kts | 325° |
| 2026-04-30 12:21 | 36.79832 | 23.18945 | 30418 ft | 456 kts | 325° |
| 2026-04-30 12:21 | 36.82554 | 23.16903 | 30871 ft | 454 kts | 325° |
| 2026-04-30 12:22 | 36.85247 | 23.14879 | 31325 ft | 453 kts | 324° |
| 2026-04-30 12:22 | 36.87928 | 23.12862 | 31788 ft | 451 kts | 324° |
| 2026-04-30 12:22 | 36.90601 | 23.10849 | 32233 ft | 449 kts | 324° |
| 2026-04-30 12:22 | 36.93245 | 23.08855 | 32645 ft | 448 kts | 324° |
| 2026-04-30 12:23 | 36.95915 | 23.06840 | 33024 ft | 447 kts | 324° |
| 2026-04-30 12:23 | 36.98574 | 23.04832 | 33393 ft | 446 kts | 324° |
| 2026-04-30 12:23 | 37.01242 | 23.02815 | 33783 ft | 445 kts | 324° |
| 2026-04-30 12:23 | 37.03876 | 23.00822 | 34194 ft | 443 kts | 323° |
| 2026-04-30 12:24 | 37.06507 | 22.98830 | 34560 ft | 442 kts | 323° |
| 2026-04-30 12:24 | 37.09103 | 22.96862 | 34842 ft | 440 kts | 323° |
| 2026-04-30 12:24 | 37.11732 | 22.94867 | 35144 ft | 438 kts | 323° |
| 2026-04-30 12:24 | 37.14298 | 22.92918 | 35426 ft | 437 kts | 323° |
| 2026-04-30 12:25 | 37.16913 | 22.90931 | 35696 ft | 435 kts | 323° |
| 2026-04-30 12:25 | 37.19472 | 22.88985 | 35926 ft | 435 kts | 323° |
| 2026-04-30 12:25 | 37.22062 | 22.87014 | 36162 ft | 434 kts | 323° |
| 2026-04-30 12:25 | 37.24651 | 22.85043 | 36405 ft | 433 kts | 323° |
| 2026-04-30 12:26 | 37.27211 | 22.83092 | 36642 ft | 434 kts | 323° |
| 2026-04-30 12:26 | 37.29771 | 22.81139 | 36847 ft | 434 kts | 323° |
| 2026-04-30 12:26 | 37.32365 | 22.79158 | 37065 ft | 435 kts | 324° |
| 2026-04-30 12:26 | 37.34953 | 22.77181 | 37293 ft | 435 kts | 324° |
| 2026-04-30 12:27 | 37.37537 | 22.75205 | 37472 ft | 435 kts | 323° |
| 2026-04-30 12:27 | 37.40091 | 22.73251 | 37622 ft | 436 kts | 324° |
| 2026-04-30 12:27 | 37.42704 | 22.71250 | 37780 ft | 437 kts | 324° |
| 2026-04-30 12:27 | 37.45296 | 22.69264 | 37897 ft | 438 kts | 323° |
| 2026-04-30 12:28 | 37.50487 | 22.65281 | 38007 ft | 441 kts | 324° |
| 2026-04-30 12:28 | 37.55729 | 22.61251 | 38009 ft | 441 kts | 324° |
| 2026-04-30 12:29 | 37.60950 | 22.57232 | 38034 ft | 440 kts | 324° |
| 2026-04-30 12:29 | 37.66138 | 22.53232 | 38048 ft | 440 kts | 324° |
| 2026-04-30 12:30 | 37.71351 | 22.49207 | 38050 ft | 440 kts | 324° |
| 2026-04-30 12:30 | 37.76557 | 22.45179 | 38061 ft | 441 kts | 324° |
| 2026-04-30 12:31 | 37.81811 | 22.41106 | 38063 ft | 442 kts | 324° |
| 2026-04-30 12:31 | 37.87014 | 22.37066 | 38071 ft | 442 kts | 324° |
| 2026-04-30 12:32 | 37.92245 | 22.32999 | 38081 ft | 441 kts | 323° |
| 2026-04-30 12:32 | 37.97452 | 22.28943 | 38098 ft | 441 kts | 324° |
| 2026-04-30 12:33 | 38.02688 | 22.24858 | 38097 ft | 441 kts | 324° |
| 2026-04-30 12:33 | 38.07896 | 22.20788 | 38092 ft | 441 kts | 324° |
| 2026-04-30 12:34 | 38.13123 | 22.16698 | 38069 ft | 443 kts | 324° |
| 2026-04-30 12:34 | 38.18356 | 22.12592 | 38051 ft | 443 kts | 324° |
| 2026-04-30 12:35 | 38.23575 | 22.08493 | 38032 ft | 442 kts | 324° |
| 2026-04-30 12:35 | 38.28753 | 22.04417 | 38012 ft | 441 kts | 324° |
| 2026-04-30 12:36 | 38.33982 | 22.00296 | 38019 ft | 442 kts | 324° |
| 2026-04-30 12:36 | 38.39198 | 21.96177 | 38026 ft | 442 kts | 324° |
| 2026-04-30 12:37 | 38.44414 | 21.92053 | 38024 ft | 442 kts | 324° |
| 2026-04-30 12:37 | 38.49639 | 21.87913 | 38032 ft | 442 kts | 324° |
| 2026-04-30 12:38 | 38.54847 | 21.83777 | 38034 ft | 442 kts | 324° |
| 2026-04-30 12:38 | 38.60026 | 21.79660 | 38036 ft | 441 kts | 324° |
| 2026-04-30 12:39 | 38.65263 | 21.75490 | 38046 ft | 441 kts | 324° |
| 2026-04-30 12:39 | 38.70444 | 21.71358 | 38045 ft | 441 kts | 324° |
| 2026-04-30 12:40 | 38.75648 | 21.67199 | 38043 ft | 442 kts | 324° |
| 2026-04-30 12:40 | 38.80833 | 21.63045 | 38046 ft | 442 kts | 324° |
| 2026-04-30 12:41 | 38.86030 | 21.58878 | 38030 ft | 442 kts | 324° |
| 2026-04-30 12:41 | 38.91241 | 21.54691 | 38023 ft | 442 kts | 324° |
| 2026-04-30 12:42 | 38.96438 | 21.50509 | 38017 ft | 441 kts | 324° |
| 2026-04-30 12:42 | 39.01644 | 21.46311 | 38021 ft | 442 kts | 324° |
| 2026-04-30 12:43 | 39.06817 | 21.42134 | 38042 ft | 442 kts | 324° |
| 2026-04-30 12:43 | 39.12026 | 21.37919 | 38036 ft | 441 kts | 324° |
| 2026-04-30 12:44 | 39.17196 | 21.33729 | 38045 ft | 440 kts | 323° |
| 2026-04-30 12:44 | 39.22361 | 21.29535 | 38056 ft | 440 kts | 323° |
| 2026-04-30 12:45 | 39.27500 | 21.25356 | 38058 ft | 439 kts | 323° |
| 2026-04-30 12:45 | 39.32681 | 21.21134 | 38065 ft | 439 kts | 323° |
| 2026-04-30 12:46 | 39.37812 | 21.16944 | 38058 ft | 438 kts | 323° |
| 2026-04-30 12:46 | 39.42953 | 21.12740 | 38057 ft | 438 kts | 324° |
| 2026-04-30 12:47 | 39.48087 | 21.08535 | 38057 ft | 438 kts | 324° |
| 2026-04-30 12:47 | 39.53230 | 21.04315 | 38054 ft | 439 kts | 323° |
| 2026-04-30 12:48 | 39.58378 | 21.00083 | 38054 ft | 438 kts | 323° |
| 2026-04-30 12:48 | 39.63517 | 20.95849 | 38055 ft | 438 kts | 324° |
| 2026-04-30 12:49 | 39.68651 | 20.91614 | 38048 ft | 437 kts | 324° |
| 2026-04-30 12:49 | 39.73750 | 20.87400 | 38054 ft | 436 kts | 324° |
| 2026-04-30 12:50 | 39.78866 | 20.83164 | 38053 ft | 436 kts | 323° |
| 2026-04-30 12:50 | 39.83976 | 20.78924 | 38066 ft | 437 kts | 323° |
| 2026-04-30 12:51 | 39.89060 | 20.74696 | 38062 ft | 437 kts | 323° |
| 2026-04-30 12:51 | 39.94177 | 20.70432 | 38064 ft | 436 kts | 324° |
| 2026-04-30 12:52 | 39.99263 | 20.66215 | 38054 ft | 436 kts | 325° |
| 2026-04-30 12:52 | 40.04635 | 20.62429 | 38050 ft | 439 kts | 330° |
| 2026-04-30 12:53 | 40.10292 | 20.59366 | 38047 ft | 443 kts | 336° |
| 2026-04-30 12:53 | 40.16199 | 20.57060 | 38041 ft | 447 kts | 341° |
| 2026-04-30 12:54 | 40.22251 | 20.55319 | 38035 ft | 448 kts | 343° |
| 2026-04-30 12:54 | 40.28348 | 20.53631 | 38028 ft | 448 kts | 343° |
| 2026-04-30 12:55 | 40.34415 | 20.51947 | 38032 ft | 447 kts | 343° |
| 2026-04-30 12:55 | 40.40495 | 20.50255 | 38029 ft | 448 kts | 342° |
| 2026-04-30 12:56 | 40.46607 | 20.48548 | 38029 ft | 448 kts | 342° |
| 2026-04-30 12:56 | 40.52665 | 20.46853 | 38029 ft | 448 kts | 342° |
| 2026-04-30 12:57 | 40.58773 | 20.45141 | 38027 ft | 447 kts | 342° |
| 2026-04-30 12:57 | 40.64856 | 20.43432 | 38030 ft | 448 kts | 342° |
| 2026-04-30 12:58 | 40.70908 | 20.41729 | 38022 ft | 447 kts | 342° |
| 2026-04-30 12:58 | 40.76982 | 20.40018 | 38023 ft | 448 kts | 342° |
| 2026-04-30 12:59 | 40.83083 | 20.38293 | 38022 ft | 447 kts | 342° |
| 2026-04-30 12:59 | 40.89127 | 20.36585 | 38022 ft | 447 kts | 342° |
| 2026-04-30 13:00 | 40.95198 | 20.34863 | 38030 ft | 447 kts | 341° |
| 2026-04-30 13:00 | 41.01282 | 20.33134 | 38027 ft | 446 kts | 341° |
| 2026-04-30 13:01 | 41.07334 | 20.31412 | 38034 ft | 446 kts | 341° |
| 2026-04-30 13:01 | 41.13400 | 20.29680 | 38032 ft | 446 kts | 341° |
| 2026-04-30 13:02 | 41.19489 | 20.27941 | 38026 ft | 447 kts | 341° |
| 2026-04-30 13:02 | 41.25547 | 20.26206 | 38028 ft | 448 kts | 341° |
| 2026-04-30 13:03 | 41.31619 | 20.24467 | 38056 ft | 448 kts | 341° |
| 2026-04-30 13:03 | 41.37693 | 20.22722 | 38054 ft | 447 kts | 341° |
| 2026-04-30 13:04 | 41.43770 | 20.20970 | 38074 ft | 448 kts | 341° |
| 2026-04-30 13:04 | 41.49890 | 20.19203 | 38044 ft | 448 kts | 341° |
| 2026-04-30 13:05 | 41.55944 | 20.17498 | 38043 ft | 449 kts | 343° |
| 2026-04-30 13:06 | 41.65236 | 20.15553 | 38089 ft | 452 kts | 345° |
| 2026-04-30 13:06 | 41.71463 | 20.14294 | 38077 ft | 452 kts | 345° |
| 2026-04-30 13:07 | 41.77639 | 20.13038 | 38105 ft | 453 kts | 345° |
| 2026-04-30 13:07 | 41.83855 | 20.11770 | 38121 ft | 453 kts | 345° |
| 2026-04-30 13:08 | 41.90099 | 20.10494 | 38119 ft | 454 kts | 345° |
| 2026-04-30 13:08 | 41.96322 | 20.09217 | 38096 ft | 455 kts | 345° |
| 2026-04-30 13:09 | 42.02549 | 20.07936 | 38110 ft | 455 kts | 345° |
| 2026-04-30 13:09 | 42.08796 | 20.06649 | 38117 ft | 455 kts | 345° |
| 2026-04-30 13:10 | 42.15059 | 20.05357 | 38147 ft | 456 kts | 345° |
| 2026-04-30 13:10 | 42.21296 | 20.04067 | 38132 ft | 456 kts | 345° |
| 2026-04-30 13:11 | 42.27571 | 20.02763 | 38149 ft | 457 kts | 345° |
| 2026-04-30 13:11 | 42.33839 | 20.01463 | 38127 ft | 457 kts | 345° |
| 2026-04-30 13:12 | 42.40150 | 20.00154 | 38113 ft | 457 kts | 345° |
| 2026-04-30 13:12 | 42.46391 | 19.98851 | 38113 ft | 457 kts | 345° |
| 2026-04-30 13:13 | 42.55799 | 19.96886 | 38077 ft | 457 kts | 346° |
| 2026-04-30 13:14 | 42.65203 | 19.94913 | 38099 ft | 458 kts | 346° |
| 2026-04-30 13:14 | 42.74645 | 19.92930 | 38100 ft | 457 kts | 346° |
| 2026-04-30 13:15 | 42.84015 | 19.90953 | 38103 ft | 456 kts | 346° |
| 2026-04-30 13:16 | 42.90298 | 19.89624 | 38136 ft | 458 kts | 346° |
| 2026-04-30 13:16 | 42.96590 | 19.88289 | 38151 ft | 458 kts | 346° |
| 2026-04-30 13:17 | 43.06035 | 19.86282 | 38177 ft | 459 kts | 346° |
| 2026-04-30 13:18 | 43.15454 | 19.84275 | 38198 ft | 459 kts | 347° |
| 2026-04-30 13:18 | 43.24904 | 19.82256 | 38192 ft | 459 kts | 346° |
| 2026-04-30 13:19 | 43.31192 | 19.80907 | 38189 ft | 459 kts | 347° |
| 2026-04-30 13:19 | 43.37511 | 19.79551 | 38185 ft | 459 kts | 347° |
| 2026-04-30 13:20 | 43.43817 | 19.78194 | 38179 ft | 459 kts | 347° |
| 2026-04-30 13:20 | 43.50102 | 19.76838 | 38169 ft | 459 kts | 347° |
| 2026-04-30 13:21 | 43.56415 | 19.75472 | 38171 ft | 460 kts | 347° |
| 2026-04-30 13:22 | 43.65854 | 19.73425 | 38174 ft | 460 kts | 348° |
| 2026-04-30 13:22 | 43.75369 | 19.71883 | 38193 ft | 458 kts | 350° |
| 2026-04-30 13:23 | 43.84887 | 19.70449 | 38205 ft | 459 kts | 350° |
| 2026-04-30 13:24 | 43.97527 | 19.68520 | 38213 ft | 458 kts | 350° |
| 2026-04-30 13:25 | 44.10167 | 19.66581 | 38236 ft | 458 kts | 350° |
| 2026-04-30 13:26 | 44.25935 | 19.64147 | 38254 ft | 458 kts | 351° |
| 2026-04-30 13:28 | 44.41740 | 19.61695 | 38253 ft | 458 kts | 351° |
| 2026-04-30 13:28 | 44.51226 | 19.60220 | 38271 ft | 457 kts | 351° |
| 2026-04-30 13:29 | 44.63818 | 19.58251 | 38259 ft | 458 kts | 351° |
| 2026-04-30 13:31 | 44.79628 | 19.55767 | 38262 ft | 458 kts | 351° |
| 2026-04-30 13:32 | 44.95424 | 19.53271 | 38264 ft | 458 kts | 351° |
| 2026-04-30 13:33 | 45.08072 | 19.51261 | 38277 ft | 459 kts | 352° |
| 2026-04-30 13:34 | 45.17523 | 19.49755 | 38274 ft | 457 kts | 352° |
| 2026-04-30 13:35 | 45.30156 | 19.47735 | 38274 ft | 457 kts | 352° |
| 2026-04-30 13:36 | 45.42750 | 19.45710 | 38276 ft | 457 kts | 352° |
| 2026-04-30 13:36 | 45.52197 | 19.44183 | 38280 ft | 456 kts | 352° |
| 2026-04-30 13:37 | 45.61637 | 19.42655 | 38283 ft | 456 kts | 352° |
| 2026-04-30 13:38 | 45.71081 | 19.41122 | 38287 ft | 457 kts | 352° |
| 2026-04-30 13:39 | 45.83630 | 19.39074 | 38281 ft | 456 kts | 352° |
| 2026-04-30 13:40 | 45.93048 | 19.37528 | 38280 ft | 455 kts | 352° |
| 2026-04-30 13:40 | 45.99317 | 19.36499 | 38279 ft | 455 kts | 352° |
| 2026-04-30 13:41 | 46.05600 | 19.35196 | 38281 ft | 455 kts | 348° |
| 2026-04-30 13:41 | 46.11753 | 19.33180 | 38285 ft | 454 kts | 345° |
| 2026-04-30 13:42 | 46.17862 | 19.31037 | 38285 ft | 454 kts | 345° |
| 2026-04-30 13:42 | 46.27019 | 19.27813 | 38287 ft | 454 kts | 345° |
| 2026-04-30 13:43 | 46.33178 | 19.25643 | 38288 ft | 454 kts | 345° |
| 2026-04-30 13:43 | 46.39270 | 19.23491 | 38291 ft | 454 kts | 345° |
| 2026-04-30 13:44 | 46.45399 | 19.21323 | 38295 ft | 454 kts | 346° |
| 2026-04-30 13:44 | 46.51501 | 19.19160 | 38294 ft | 454 kts | 346° |
| 2026-04-30 13:45 | 46.60730 | 19.15879 | 38293 ft | 455 kts | 346° |
| 2026-04-30 13:46 | 46.66823 | 19.13707 | 38296 ft | 454 kts | 346° |
| 2026-04-30 13:46 | 46.72960 | 19.11513 | 38299 ft | 454 kts | 346° |
| 2026-04-30 13:47 | 46.79048 | 19.09331 | 38300 ft | 454 kts | 346° |
| 2026-04-30 13:47 | 46.85172 | 19.07133 | 38301 ft | 453 kts | 346° |
| 2026-04-30 13:48 | 46.91275 | 19.04936 | 38301 ft | 454 kts | 346° |
| 2026-04-30 13:48 | 46.97422 | 19.02720 | 38302 ft | 455 kts | 346° |
| 2026-04-30 13:49 | 47.03561 | 19.00500 | 38301 ft | 455 kts | 346° |
| 2026-04-30 13:49 | 47.09678 | 18.98282 | 38303 ft | 454 kts | 347° |
| 2026-04-30 13:50 | 47.15785 | 18.96064 | 38306 ft | 454 kts | 347° |
| 2026-04-30 13:50 | 47.24919 | 18.92737 | 38306 ft | 453 kts | 347° |
| 2026-04-30 13:51 | 47.31044 | 18.90498 | 38308 ft | 452 kts | 347° |
| 2026-04-30 13:51 | 47.37094 | 18.88281 | 38308 ft | 452 kts | 347° |
| 2026-04-30 13:52 | 47.43180 | 18.86044 | 38309 ft | 451 kts | 347° |
| 2026-04-30 13:52 | 47.49276 | 18.83801 | 38312 ft | 451 kts | 347° |
| 2026-04-30 13:53 | 47.55340 | 18.81562 | 38311 ft | 450 kts | 347° |
| 2026-04-30 13:53 | 47.61381 | 18.79330 | 38305 ft | 450 kts | 347° |
| 2026-04-30 13:54 | 47.67423 | 18.77089 | 38310 ft | 450 kts | 347° |
| 2026-04-30 13:54 | 47.73489 | 18.74835 | 38312 ft | 449 kts | 347° |
| 2026-04-30 13:55 | 47.79529 | 18.72585 | 38309 ft | 448 kts | 347° |
| 2026-04-30 13:55 | 47.85554 | 18.70335 | 38316 ft | 448 kts | 347° |
| 2026-04-30 13:56 | 47.91583 | 18.68078 | 38322 ft | 447 kts | 347° |
| 2026-04-30 13:56 | 47.97581 | 18.65828 | 38320 ft | 447 kts | 348° |
| 2026-04-30 13:57 | 48.03623 | 18.63555 | 38331 ft | 447 kts | 348° |
| 2026-04-30 13:57 | 48.09621 | 18.61293 | 38337 ft | 446 kts | 348° |
| 2026-04-30 13:58 | 48.18607 | 18.57895 | 38337 ft | 446 kts | 348° |
| 2026-04-30 13:59 | 48.24614 | 18.55616 | 38337 ft | 446 kts | 348° |
| 2026-04-30 13:59 | 48.30598 | 18.53339 | 38332 ft | 446 kts | 348° |
| 2026-04-30 14:00 | 48.36572 | 18.51061 | 38328 ft | 446 kts | 348° |
| 2026-04-30 14:00 | 48.45549 | 18.47609 | 38320 ft | 445 kts | 348° |
| 2026-04-30 14:01 | 48.51561 | 18.45287 | 38318 ft | 444 kts | 348° |
| 2026-04-30 14:01 | 48.57498 | 18.42986 | 38318 ft | 444 kts | 348° |
| 2026-04-30 14:02 | 48.63501 | 18.40657 | 38316 ft | 445 kts | 348° |
| 2026-04-30 14:02 | 48.69466 | 18.38332 | 38327 ft | 445 kts | 348° |
| 2026-04-30 14:03 | 48.75407 | 18.36014 | 38326 ft | 444 kts | 348° |
| 2026-04-30 14:03 | 48.81388 | 18.33676 | 38335 ft | 444 kts | 348° |
| 2026-04-30 14:04 | 48.87360 | 18.31336 | 38335 ft | 443 kts | 347° |
| 2026-04-30 14:04 | 48.93304 | 18.28998 | 38328 ft | 443 kts | 348° |
| 2026-04-30 14:05 | 48.99244 | 18.26659 | 38325 ft | 443 kts | 348° |
| 2026-04-30 14:05 | 49.05194 | 18.24307 | 38327 ft | 443 kts | 348° |
| 2026-04-30 14:06 | 49.14086 | 18.20783 | 38324 ft | 442 kts | 348° |
| 2026-04-30 14:07 | 49.22990 | 18.17168 | 38322 ft | 443 kts | 346° |
| 2026-04-30 14:08 | 49.31629 | 18.12262 | 38319 ft | 444 kts | 341° |
| 2026-04-30 14:08 | 49.40169 | 18.06938 | 38324 ft | 443 kts | 341° |
| 2026-04-30 14:09 | 49.45904 | 18.03356 | 38335 ft | 444 kts | 341° |
| 2026-04-30 14:10 | 49.54446 | 17.98001 | 38357 ft | 443 kts | 341° |
| 2026-04-30 14:10 | 49.60119 | 17.94439 | 38362 ft | 443 kts | 341° |
| 2026-04-30 14:11 | 49.65786 | 17.90867 | 38362 ft | 443 kts | 342° |
| 2026-04-30 14:11 | 49.71448 | 17.87294 | 38365 ft | 442 kts | 341° |
| 2026-04-30 14:12 | 49.77125 | 17.83700 | 38368 ft | 441 kts | 342° |
| 2026-04-30 14:12 | 49.82786 | 17.80108 | 38366 ft | 441 kts | 341° |
| 2026-04-30 14:13 | 49.88420 | 17.76519 | 38365 ft | 442 kts | 342° |
| 2026-04-30 14:13 | 49.94093 | 17.72902 | 38362 ft | 442 kts | 342° |
| 2026-04-30 14:14 | 49.99735 | 17.69297 | 38364 ft | 440 kts | 342° |
| 2026-04-30 14:14 | 50.05408 | 17.65656 | 38379 ft | 439 kts | 342° |
| 2026-04-30 14:15 | 50.11031 | 17.62045 | 38370 ft | 439 kts | 342° |
| 2026-04-30 14:15 | 50.16650 | 17.58420 | 38367 ft | 438 kts | 342° |
| 2026-04-30 14:16 | 50.22246 | 17.54798 | 38366 ft | 438 kts | 342° |
| 2026-04-30 14:16 | 50.27874 | 17.51290 | 38366 ft | 436 kts | 345° |
| 2026-04-30 14:17 | 50.33588 | 17.48238 | 38372 ft | 435 kts | 346° |
| 2026-04-30 14:17 | 50.39323 | 17.45223 | 38361 ft | 434 kts | 346° |
| 2026-04-30 14:18 | 50.45029 | 17.42207 | 38370 ft | 434 kts | 346° |
| 2026-04-30 14:18 | 50.53565 | 17.37675 | 38334 ft | 434 kts | 346° |
| 2026-04-30 14:19 | 50.62094 | 17.33128 | 38381 ft | 434 kts | 346° |
| 2026-04-30 14:20 | 50.67789 | 17.30084 | 38384 ft | 435 kts | 346° |
| 2026-04-30 14:20 | 50.76353 | 17.25487 | 38404 ft | 433 kts | 346° |
| 2026-04-30 14:21 | 50.82021 | 17.22434 | 38395 ft | 431 kts | 346° |
| 2026-04-30 14:22 | 50.90517 | 17.17846 | 38407 ft | 432 kts | 346° |
| 2026-04-30 14:22 | 50.99020 | 17.13239 | 38396 ft | 432 kts | 346° |
| 2026-04-30 14:23 | 51.10297 | 17.07098 | 38401 ft | 430 kts | 346° |
| 2026-04-30 14:24 | 51.18792 | 17.02451 | 38400 ft | 430 kts | 346° |
| 2026-04-30 14:25 | 51.30042 | 16.96270 | 38419 ft | 430 kts | 347° |
| 2026-04-30 14:26 | 51.38475 | 16.91617 | 38408 ft | 429 kts | 346° |
| 2026-04-30 14:27 | 51.46898 | 16.86945 | 38388 ft | 428 kts | 347° |
| 2026-04-30 14:27 | 51.52517 | 16.83822 | 38407 ft | 428 kts | 347° |
| 2026-04-30 14:28 | 51.60901 | 16.79145 | 38380 ft | 426 kts | 347° |
| 2026-04-30 14:28 | 51.66468 | 16.76031 | 38402 ft | 427 kts | 347° |
| 2026-04-30 14:29 | 51.76708 | 16.70278 | 38388 ft | 426 kts | 347° |
| 2026-04-30 14:31 | 51.91543 | 16.61897 | 38387 ft | 425 kts | 347° |
| 2026-04-30 14:31 | 51.99879 | 16.57160 | 38422 ft | 424 kts | 347° |
| 2026-04-30 14:32 | 52.08219 | 16.52404 | 38385 ft | 423 kts | 347° |
| 2026-04-30 14:33 | 52.13761 | 16.49231 | 38377 ft | 423 kts | 347° |
| 2026-04-30 14:33 | 52.22045 | 16.44474 | 38386 ft | 423 kts | 347° |
| 2026-04-30 14:34 | 52.27574 | 16.41289 | 38399 ft | 423 kts | 347° |
| 2026-04-30 14:34 | 52.33076 | 16.38114 | 38399 ft | 421 kts | 347° |
| 2026-04-30 14:35 | 52.41340 | 16.33322 | 38392 ft | 421 kts | 347° |
| 2026-04-30 14:36 | 52.46824 | 16.30133 | 38389 ft | 421 kts | 347° |
| 2026-04-30 14:36 | 52.52328 | 16.26926 | 38368 ft | 421 kts | 347° |
| 2026-04-30 14:37 | 52.57860 | 16.23692 | 38371 ft | 421 kts | 347° |
| 2026-04-30 14:37 | 52.63354 | 16.20474 | 38377 ft | 421 kts | 347° |
| 2026-04-30 14:38 | 52.68821 | 16.17261 | 38381 ft | 421 kts | 347° |
| 2026-04-30 14:38 | 52.74305 | 16.14028 | 38373 ft | 420 kts | 347° |
| 2026-04-30 14:39 | 52.79825 | 16.10766 | 38372 ft | 421 kts | 347° |
| 2026-04-30 14:39 | 52.85309 | 16.07518 | 38379 ft | 421 kts | 347° |
| 2026-04-30 14:40 | 52.93544 | 16.02622 | 38375 ft | 420 kts | 347° |
| 2026-04-30 14:40 | 52.99014 | 15.99360 | 38366 ft | 420 kts | 347° |
| 2026-04-30 14:41 | 53.04489 | 15.96086 | 38369 ft | 419 kts | 347° |
| 2026-04-30 14:41 | 53.09966 | 15.92803 | 38373 ft | 420 kts | 347° |
| 2026-04-30 14:42 | 53.15427 | 15.89521 | 38374 ft | 420 kts | 347° |
| 2026-04-30 14:42 | 53.20896 | 15.86223 | 38372 ft | 420 kts | 347° |
| 2026-04-30 14:43 | 53.26374 | 15.82911 | 38377 ft | 420 kts | 347° |
| 2026-04-30 14:43 | 53.31820 | 15.79611 | 38383 ft | 420 kts | 347° |
| 2026-04-30 14:44 | 53.37328 | 15.76262 | 38379 ft | 420 kts | 347° |
| 2026-04-30 14:44 | 53.42789 | 15.72934 | 38378 ft | 421 kts | 347° |
| 2026-04-30 14:45 | 53.48239 | 15.69602 | 38382 ft | 420 kts | 346° |
| 2026-04-30 14:45 | 53.53728 | 15.66237 | 38389 ft | 420 kts | 346° |
| 2026-04-30 14:46 | 53.59209 | 15.62868 | 38387 ft | 421 kts | 347° |
| 2026-04-30 14:46 | 53.64689 | 15.59494 | 38392 ft | 421 kts | 346° |
| 2026-04-30 14:47 | 53.70151 | 15.56118 | 38387 ft | 420 kts | 346° |
| 2026-04-30 14:47 | 53.75636 | 15.52718 | 38391 ft | 421 kts | 346° |
| 2026-04-30 14:48 | 53.81115 | 15.49314 | 38394 ft | 422 kts | 346° |
| 2026-04-30 14:48 | 53.86611 | 15.45887 | 38386 ft | 421 kts | 346° |
| 2026-04-30 14:49 | 53.92092 | 15.42461 | 38390 ft | 421 kts | 346° |
| 2026-04-30 14:49 | 53.97553 | 15.39042 | 38389 ft | 421 kts | 346° |
| 2026-04-30 14:50 | 54.05795 | 15.33858 | 38374 ft | 422 kts | 345° |
| 2026-04-30 14:51 | 54.14048 | 15.28646 | 38376 ft | 423 kts | 345° |
| 2026-04-30 14:52 | 54.22274 | 15.23429 | 38372 ft | 424 kts | 345° |
| 2026-04-30 14:52 | 54.30528 | 15.18171 | 38378 ft | 425 kts | 345° |
| 2026-04-30 14:53 | 54.38808 | 15.12873 | 38380 ft | 425 kts | 345° |
| 2026-04-30 14:54 | 54.49837 | 15.05782 | 38376 ft | 426 kts | 345° |
| 2026-04-30 14:55 | 54.58172 | 15.00397 | 38374 ft | 427 kts | 345° |
| 2026-04-30 14:56 | 54.69246 | 14.93199 | 38379 ft | 427 kts | 344° |
| 2026-04-30 14:57 | 54.77566 | 14.87764 | 38370 ft | 428 kts | 344° |
| 2026-04-30 14:58 | 54.88400 | 14.79054 | 38374 ft | 433 kts | 339° |
| 2026-04-30 14:58 | 54.96342 | 14.72148 | 38378 ft | 434 kts | 339° |
| 2026-04-30 15:00 | 55.09094 | 14.61004 | 38373 ft | 435 kts | 338° |
| 2026-04-30 15:01 | 55.19849 | 14.51550 | 38544 ft | 435 kts | 338° |
| 2026-04-30 15:01 | 55.21652 | 14.49959 | 38437 ft | 434 kts | 338° |
| 2026-04-30 15:01 | 55.27919 | 14.44417 | 38364 ft | 434 kts | 338° |
| 2026-04-30 15:02 | 55.33268 | 14.39668 | 38357 ft | 435 kts | 338° |
| 2026-04-30 15:03 | 55.46759 | 14.27636 | 38363 ft | 436 kts | 336° |
| 2026-04-30 15:04 | 55.60225 | 14.15531 | 38366 ft | 436 kts | 336° |
| 2026-04-30 15:06 | 55.73699 | 14.03323 | 38362 ft | 438 kts | 336° |
| 2026-04-30 15:07 | 55.84461 | 13.93506 | 38359 ft | 437 kts | 336° |
| 2026-04-30 15:08 | 55.95226 | 13.83626 | 38353 ft | 438 kts | 336° |
| 2026-04-30 15:09 | 56.08734 | 13.71140 | 38349 ft | 439 kts | 335° |
| 2026-04-30 15:10 | 56.19544 | 13.61072 | 38340 ft | 439 kts | 335° |
| 2026-04-30 15:11 | 56.35764 | 13.45847 | 38363 ft | 441 kts | 335° |
| 2026-04-30 15:13 | 56.49324 | 13.33004 | 38363 ft | 442 kts | 334° |
| 2026-04-30 15:14 | 56.68285 | 13.14869 | 38377 ft | 442 kts | 334° |
| 2026-04-30 15:17 | 56.91306 | 12.92571 | 38371 ft | 443 kts | 333° |
| 2026-04-30 15:19 | 57.12896 | 12.71368 | 38363 ft | 443 kts | 333° |